Ellicott City, Maryland
Current Conditions -  °F | °C
As of 9:54 PM on Saturday 25 Oct 2014 (Local Time) from KBWI Reporting Station
Clear Clear  
Wind Chill: 57°   Ceiling: Unl
Heat Index: 57°   Visibility: 10mi
Dew Point: 42°   Wind: 7mph
Humidity: 57%   Direction: 270°W
Pressure: 29.72"   Gusts: NA
Location:  39.27°N, 76.8°W
Report Text: KBWI 260154Z 27006KT 10SM CLR 14/06 A2972 RMK AO2 SLP062 T01390056
Loading
Personal Weather Stations






























Interactive Weather Map
Tropical Storm Tracking
New forecast layout! Learn more

10-Day Weather Forecast

Advertisements
Track Severe Weather on mobile